sensor_id;sensor_type;location;lat;lon;timestamp;pressure;altitude;pressure_sealevel;temperature;humidity
78857;BME280;68207;50.078;19.936;2023-03-16T00:01:14;99181.71;;;2.36;62.20
78857;BME280;68207;50.078;19.936;2023-03-16T00:03:39;99183.14;;;2.31;62.53
78857;BME280;68207;50.078;19.936;2023-03-16T00:06:05;99181.27;;;2.23;62.76
78857;BME280;68207;50.078;19.936;2023-03-16T00:08:30;99188.04;;;2.16;62.58
78857;BME280;68207;50.078;19.936;2023-03-16T00:10:56;99186.84;;;2.12;62.75
78857;BME280;68207;50.078;19.936;2023-03-16T00:13:22;99189.27;;;2.07;62.93
78857;BME280;68207;50.078;19.936;2023-03-16T00:15:50;99194.79;;;2.03;63.25
78857;BME280;68207;50.078;19.936;2023-03-16T00:18:16;99194.65;;;1.98;63.10
78857;BME280;68207;50.078;19.936;2023-03-16T00:20:41;99196.34;;;1.94;63.31
78857;BME280;68207;50.078;19.936;2023-03-16T00:23:07;99199.94;;;1.90;63.54
78857;BME280;68207;50.078;19.936;2023-03-16T00:25:32;99198.94;;;1.87;63.73
78857;BME280;68207;50.078;19.936;2023-03-16T00:27:58;99205.48;;;1.86;63.70
78857;BME280;68207;50.078;19.936;2023-03-16T00:30:24;99208.02;;;1.87;64.00
78857;BME280;68207;50.078;19.936;2023-03-16T00:32:49;99208.92;;;1.87;63.94
78857;BME280;68207;50.078;19.936;2023-03-16T00:35:18;99213.24;;;1.87;63.82
78857;BME280;68207;50.078;19.936;2023-03-16T00:37:43;99210.01;;;1.86;63.81
78857;BME280;68207;50.078;19.936;2023-03-16T00:40:09;99207.73;;;1.84;63.99
78857;BME280;68207;50.078;19.936;2023-03-16T00:42:36;99210.38;;;1.84;63.79
78857;BME280;68207;50.078;19.936;2023-03-16T00:45:02;99211.00;;;1.80;64.00
78857;BME280;68207;50.078;19.936;2023-03-16T00:47:29;99209.98;;;1.74;64.03
78857;BME280;68207;50.078;19.936;2023-03-16T00:49:55;99209.08;;;1.68;64.36
78857;BME280;68207;50.078;19.936;2023-03-16T00:52:21;99211.37;;;1.62;64.61
78857;BME280;68207;50.078;19.936;2023-03-16T00:54:48;99216.52;;;1.56;64.58
78857;BME280;68207;50.078;19.936;2023-03-16T00:57:16;99216.35;;;1.51;64.91
78857;BME280;68207;50.078;19.936;2023-03-16T00:59:46;99217.14;;;1.45;64.88
78857;BME280;68207;50.078;19.936;2023-03-16T01:02:13;99221.98;;;1.39;65.42
78857;BME280;68207;50.078;19.936;2023-03-16T01:04:39;99222.36;;;1.30;65.49
78857;BME280;68207;50.078;19.936;2023-03-16T01:07:07;99223.76;;;1.23;65.79
78857;BME280;68207;50.078;19.936;2023-03-16T01:09:33;99225.49;;;1.18;66.29
78857;BME280;68207;50.078;19.936;2023-03-16T01:12:12;99226.53;;;1.16;65.96
78857;BME280;68207;50.078;19.936;2023-03-16T01:14:40;99229.77;;;1.14;66.07
78857;BME280;68207;50.078;19.936;2023-03-16T01:17:07;99230.13;;;1.14;66.24
78857;BME280;68207;50.078;19.936;2023-03-16T01:19:34;99230.23;;;1.13;66.17
78857;BME280;68207;50.078;19.936;2023-03-16T01:22:06;99232.29;;;1.11;66.39
78857;BME280;68207;50.078;19.936;2023-03-16T01:24:33;99235.27;;;1.03;66.42
78857;BME280;68207;50.078;19.936;2023-03-16T01:27:02;99241.23;;;0.97;67.10
78857;BME280;68207;50.078;19.936;2023-03-16T01:29:28;99243.09;;;0.93;67.18
78857;BME280;68207;50.078;19.936;2023-03-16T01:31:54;99242.99;;;0.89;66.99
78857;BME280;68207;50.078;19.936;2023-03-16T01:34:20;99245.28;;;0.86;67.27
78857;BME280;68207;50.078;19.936;2023-03-16T01:36:47;99243.13;;;0.82;67.66
78857;BME280;68207;50.078;19.936;2023-03-16T01:39:13;99245.36;;;0.77;67.62
78857;BME280;68207;50.078;19.936;2023-03-16T01:41:39;99251.43;;;0.73;67.90
78857;BME280;68207;50.078;19.936;2023-03-16T01:44:08;99253.27;;;0.71;67.91
78857;BME280;68207;50.078;19.936;2023-03-16T01:46:35;99255.58;;;0.73;67.83
78857;BME280;68207;50.078;19.936;2023-03-16T01:49:11;99254.97;;;0.74;68.21
78857;BME280;68207;50.078;19.936;2023-03-16T01:54:25;99257.13;;;0.76;67.84
78857;BME280;68207;50.078;19.936;2023-03-16T01:56:57;99257.13;;;0.73;68.15
78857;BME280;68207;50.078;19.936;2023-03-16T01:59:31;99256.02;;;0.69;68.48
78857;BME280;68207;50.078;19.936;2023-03-16T02:01:57;99259.44;;;0.65;68.27
78857;BME280;68207;50.078;19.936;2023-03-16T02:04:53;99263.50;;;0.61;68.41
78857;BME280;68207;50.078;19.936;2023-03-16T02:07:23;99265.63;;;0.58;68.59
78857;BME280;68207;50.078;19.936;2023-03-16T02:09:51;99268.59;;;0.56;68.66
78857;BME280;68207;50.078;19.936;2023-03-16T02:12:19;99274.92;;;0.54;68.85
78857;BME280;68207;50.078;19.936;2023-03-16T02:14:48;99275.09;;;0.55;68.84
78857;BME280;68207;50.078;19.936;2023-03-16T02:17:17;99279.25;;;0.55;68.83
78857;BME280;68207;50.078;19.936;2023-03-16T02:22:31;99286.15;;;0.58;68.90
78857;BME280;68207;50.078;19.936;2023-03-16T02:25:00;99286.33;;;0.58;68.96
78857;BME280;68207;50.078;19.936;2023-03-16T02:32:23;99289.89;;;0.59;68.80
78857;BME280;68207;50.078;19.936;2023-03-16T02:34:50;99295.60;;;0.57;69.00
78857;BME280;68207;50.078;19.936;2023-03-16T02:37:16;99296.94;;;0.55;68.83
78857;BME280;68207;50.078;19.936;2023-03-16T02:39:41;99300.02;;;0.54;69.22
78857;BME280;68207;50.078;19.936;2023-03-16T02:42:12;99299.31;;;0.53;69.13
78857;BME280;68207;50.078;19.936;2023-03-16T02:44:40;99307.09;;;0.57;69.20
78857;BME280;68207;50.078;19.936;2023-03-16T02:47:16;99307.38;;;0.58;68.95
78857;BME280;68207;50.078;19.936;2023-03-16T02:49:45;99312.67;;;0.56;69.08
78857;BME280;68207;50.078;19.936;2023-03-16T02:52:10;99311.87;;;0.53;69.39
78857;BME280;68207;50.078;19.936;2023-03-16T02:54:36;99318.73;;;0.49;69.61
78857;BME280;68207;50.078;19.936;2023-03-16T02:57:02;99321.44;;;0.42;69.56
78857;BME280;68207;50.078;19.936;2023-03-16T02:59:27;99325.75;;;0.39;69.55
78857;BME280;68207;50.078;19.936;2023-03-16T03:01:53;99326.25;;;0.37;69.73
78857;BME280;68207;50.078;19.936;2023-03-16T03:04:18;99330.30;;;0.34;69.53
78857;BME280;68207;50.078;19.936;2023-03-16T03:06:44;99328.25;;;0.31;69.65
78857;BME280;68207;50.078;19.936;2023-03-16T03:09:10;99331.48;;;0.29;69.84
78857;BME280;68207;50.078;19.936;2023-03-16T03:11:38;99333.81;;;0.28;70.27
78857;BME280;68207;50.078;19.936;2023-03-16T03:14:04;99332.94;;;0.29;70.05
78857;BME280;68207;50.078;19.936;2023-03-16T03:16:30;99335.64;;;0.29;70.00
78857;BME280;68207;50.078;19.936;2023-03-16T03:18:56;99338.52;;;0.28;70.46
78857;BME280;68207;50.078;19.936;2023-03-16T03:21:22;99344.18;;;0.29;70.46
78857;BME280;68207;50.078;19.936;2023-03-16T03:23:51;99350.11;;;0.29;70.47
78857;BME280;68207;50.078;19.936;2023-03-16T03:26:17;99354.79;;;0.29;70.34
78857;BME280;68207;50.078;19.936;2023-03-16T03:28:43;99351.59;;;0.27;70.44
78857;BME280;68207;50.078;19.936;2023-03-16T03:31:16;99354.27;;;0.26;70.40
78857;BME280;68207;50.078;19.936;2023-03-16T03:33:43;99360.34;;;0.24;70.37
78857;BME280;68207;50.078;19.936;2023-03-16T03:36:09;99364.06;;;0.22;70.60
78857;BME280;68207;50.078;19.936;2023-03-16T03:38:36;99367.19;;;0.25;70.44
78857;BME280;68207;50.078;19.936;2023-03-16T03:41:02;99371.45;;;0.29;70.56
78857;BME280;68207;50.078;19.936;2023-03-16T03:43:28;99369.66;;;0.30;70.31
78857;BME280;68207;50.078;19.936;2023-03-16T03:45:58;99371.77;;;0.30;70.32
78857;BME280;68207;50.078;19.936;2023-03-16T03:48:24;99374.54;;;0.30;70.26
78857;BME280;68207;50.078;19.936;2023-03-16T03:50:50;99377.73;;;0.29;70.26
78857;BME280;68207;50.078;19.936;2023-03-16T03:53:16;99379.15;;;0.28;70.36
78857;BME280;68207;50.078;19.936;2023-03-16T03:55:41;99381.41;;;0.26;70.28
78857;BME280;68207;50.078;19.936;2023-03-16T03:58:07;99384.35;;;0.23;70.60
78857;BME280;68207;50.078;19.936;2023-03-16T04:00:32;99388.08;;;0.22;70.40
78857;BME280;68207;50.078;19.936;2023-03-16T04:02:58;99392.52;;;0.20;70.61
78857;BME280;68207;50.078;19.936;2023-03-16T04:05:24;99395.33;;;0.23;70.46
78857;BME280;68207;50.078;19.936;2023-03-16T04:07:53;99399.19;;;0.22;70.51
78857;BME280;68207;50.078;19.936;2023-03-16T04:10:22;99399.79;;;0.18;70.61
78857;BME280;68207;50.078;19.936;2023-03-16T04:12:48;99399.02;;;0.17;70.82
78857;BME280;68207;50.078;19.936;2023-03-16T04:15:13;99399.61;;;0.13;71.00
78857;BME280;68207;50.078;19.936;2023-03-16T04:17:39;99400.56;;;0.06;71.36
78857;BME280;68207;50.078;19.936;2023-03-16T04:20:05;99403.84;;;0.01;71.13
78857;BME280;68207;50.078;19.936;2023-03-16T04:22:39;99406.16;;;-0.06;71.39
78857;BME280;68207;50.078;19.936;2023-03-16T04:25:04;99406.48;;;-0.09;71.33
78857;BME280;68207;50.078;19.936;2023-03-16T04:27:30;99404.75;;;-0.08;71.47
78857;BME280;68207;50.078;19.936;2023-03-16T04:30:05;99408.80;;;-0.09;71.71
78857;BME280;68207;50.078;19.936;2023-03-16T04:32:32;99412.23;;;-0.09;71.58
78857;BME280;68207;50.078;19.936;2023-03-16T04:34:58;99412.23;;;-0.11;71.64
78857;BME280;68207;50.078;19.936;2023-03-16T04:37:24;99416.54;;;-0.11;71.94
78857;BME280;68207;50.078;19.936;2023-03-16T04:39:49;99420.33;;;-0.13;71.68
78857;BME280;68207;50.078;19.936;2023-03-16T04:42:15;99417.21;;;-0.16;71.88
78857;BME280;68207;50.078;19.936;2023-03-16T04:44:40;99419.71;;;-0.20;72.01
78857;BME280;68207;50.078;19.936;2023-03-16T04:47:08;99421.68;;;-0.21;72.01
78857;BME280;68207;50.078;19.936;2023-03-16T04:49:34;99425.56;;;-0.19;71.82
78857;BME280;68207;50.078;19.936;2023-03-16T04:51:59;99424.67;;;-0.19;72.07
78857;BME280;68207;50.078;19.936;2023-03-16T04:54:26;99426.95;;;-0.19;71.92
78857;BME280;68207;50.078;19.936;2023-03-16T04:56:51;99427.77;;;-0.21;72.16
78857;BME280;68207;50.078;19.936;2023-03-16T04:59:17;99430.39;;;-0.22;72.06
78857;BME280;68207;50.078;19.936;2023-03-16T05:01:42;99430.71;;;-0.24;71.83
78857;BME280;68207;50.078;19.936;2023-03-16T05:04:08;99434.19;;;-0.27;72.08
78857;BME280;68207;50.078;19.936;2023-03-16T05:06:33;99439.39;;;-0.29;72.39
78857;BME280;68207;50.078;19.936;2023-03-16T05:08:59;99435.21;;;-0.29;72.13
78857;BME280;68207;50.078;19.936;2023-03-16T05:11:25;99436.02;;;-0.28;72.48
78857;BME280;68207;50.078;19.936;2023-03-16T05:13:50;99437.42;;;-0.31;72.57
78857;BME280;68207;50.078;19.936;2023-03-16T05:16:19;99443.13;;;-0.31;72.66
78857;BME280;68207;50.078;19.936;2023-03-16T05:18:44;99445.55;;;-0.31;72.75
78857;BME280;68207;50.078;19.936;2023-03-16T05:21:09;99446.94;;;-0.31;72.62
78857;BME280;68207;50.078;19.936;2023-03-16T05:23:36;99449.60;;;-0.32;72.83
78857;BME280;68207;50.078;19.936;2023-03-16T05:26:02;99449.77;;;-0.32;72.63
78857;BME280;68207;50.078;19.936;2023-03-16T05:28:27;99451.50;;;-0.32;72.76
78857;BME280;68207;50.078;19.936;2023-03-16T05:30:53;99454.21;;;-0.30;72.71
78857;BME280;68207;50.078;19.936;2023-03-16T05:33:19;99452.31;;;-0.25;72.66
78857;BME280;68207;50.078;19.936;2023-03-16T05:35:45;99452.52;;;-0.17;72.59
78857;BME280;68207;50.078;19.936;2023-03-16T05:38:11;99453.75;;;-0.09;72.64
78857;BME280;68207;50.078;19.936;2023-03-16T05:40:37;99452.88;;;-0.03;72.56
78857;BME280;68207;50.078;19.936;2023-03-16T05:43:03;99455.06;;;0.01;72.51
78857;BME280;68207;50.078;19.936;2023-03-16T05:45:29;99459.73;;;0.07;72.73
78857;BME280;68207;50.078;19.936;2023-03-16T05:47:55;99459.10;;;0.12;72.39
78857;BME280;68207;50.078;19.936;2023-03-16T05:50:21;99463.02;;;0.18;72.34
78857;BME280;68207;50.078;19.936;2023-03-16T05:52:46;99462.20;;;0.23;72.15
78857;BME280;68207;50.078;19.936;2023-03-16T05:55:13;99469.83;;;0.29;71.95
78857;BME280;68207;50.078;19.936;2023-03-16T05:57:39;99467.33;;;0.35;72.19
78857;BME280;68207;50.078;19.936;2023-03-16T06:00:09;99468.35;;;0.44;71.98
78857;BME280;68207;50.078;19.936;2023-03-16T06:02:39;99471.88;;;0.60;71.89
78857;BME280;68207;50.078;19.936;2023-03-16T06:05:05;99475.04;;;0.76;71.70
78857;BME280;68207;50.078;19.936;2023-03-16T06:07:31;99475.48;;;0.85;71.35
78857;BME280;68207;50.078;19.936;2023-03-16T06:09:57;99477.08;;;0.90;71.15
78857;BME280;68207;50.078;19.936;2023-03-16T06:12:22;99481.89;;;1.02;71.19
78857;BME280;68207;50.078;19.936;2023-03-16T06:14:48;99480.66;;;1.17;71.12
78857;BME280;68207;50.078;19.936;2023-03-16T06:17:13;99482.81;;;1.35;70.86
78857;BME280;68207;50.078;19.936;2023-03-16T06:19:38;99483.84;;;1.53;70.54
78857;BME280;68207;50.078;19.936;2023-03-16T06:22:04;99490.94;;;1.72;70.03
78857;BME280;68207;50.078;19.936;2023-03-16T06:24:29;99497.40;;;1.87;69.75
78857;BME280;68207;50.078;19.936;2023-03-16T06:26:55;99501.65;;;2.04;69.64
78857;BME280;68207;50.078;19.936;2023-03-16T06:29:20;99502.20;;;2.18;68.81
78857;BME280;68207;50.078;19.936;2023-03-16T06:31:46;99501.42;;;2.30;68.57
78857;BME280;68207;50.078;19.936;2023-03-16T06:34:11;99506.72;;;2.29;67.83
78857;BME280;68207;50.078;19.936;2023-03-16T06:36:36;99509.10;;;2.29;67.79
78857;BME280;68207;50.078;19.936;2023-03-16T06:39:03;99507.67;;;2.40;68.07
78857;BME280;68207;50.078;19.936;2023-03-16T06:41:29;99510.00;;;2.59;67.70
78857;BME280;68207;50.078;19.936;2023-03-16T06:43:54;99508.94;;;2.79;67.43
78857;BME280;68207;50.078;19.936;2023-03-16T06:46:19;99516.52;;;2.97;66.82
78857;BME280;68207;50.078;19.936;2023-03-16T06:48:45;99518.67;;;3.08;66.21
78857;BME280;68207;50.078;19.936;2023-03-16T06:51:11;99521.95;;;3.13;65.77
78857;BME280;68207;50.078;19.936;2023-03-16T06:53:37;99516.91;;;3.18;65.58
78857;BME280;68207;50.078;19.936;2023-03-16T06:56:02;99520.90;;;3.37;65.76
78857;BME280;68207;50.078;19.936;2023-03-16T06:58:27;99525.13;;;3.60;65.40
78857;BME280;68207;50.078;19.936;2023-03-16T07:00:53;99527.76;;;3.85;65.21
78857;BME280;68207;50.078;19.936;2023-03-16T07:03:18;99529.32;;;4.13;64.60
78857;BME280;68207;50.078;19.936;2023-03-16T07:05:44;99530.06;;;4.32;63.69
78857;BME280;68207;50.078;19.936;2023-03-16T07:08:09;99530.84;;;4.45;63.30
78857;BME280;68207;50.078;19.936;2023-03-16T07:10:34;99533.61;;;4.67;63.11
78857;BME280;68207;50.078;19.936;2023-03-16T07:13:00;99535.20;;;4.87;62.57
78857;BME280;68207;50.078;19.936;2023-03-16T07:15:25;99533.18;;;5.07;62.52
78857;BME280;68207;50.078;19.936;2023-03-16T07:17:51;99538.73;;;5.38;61.95
78857;BME280;68207;50.078;19.936;2023-03-16T07:20:17;99538.52;;;5.68;61.32
78857;BME280;68207;50.078;19.936;2023-03-16T07:22:43;99536.61;;;5.89;60.39
78857;BME280;68207;50.078;19.936;2023-03-16T07:25:09;99538.72;;;6.03;59.33
78857;BME280;68207;50.078;19.936;2023-03-16T07:27:35;99541.48;;;6.04;58.61
78857;BME280;68207;50.078;19.936;2023-03-16T07:30:01;99539.20;;;6.00;58.71
78857;BME280;68207;50.078;19.936;2023-03-16T07:32:29;99545.27;;;5.97;57.59
78857;BME280;68207;50.078;19.936;2023-03-16T07:34:54;99545.52;;;5.83;57.58
78857;BME280;68207;50.078;19.936;2023-03-16T07:37:19;99545.42;;;5.73;57.70
78857;BME280;68207;50.078;19.936;2023-03-16T07:39:45;99551.38;;;5.82;57.92
78857;BME280;68207;50.078;19.936;2023-03-16T07:42:10;99552.45;;;5.88;57.71
78857;BME280;68207;50.078;19.936;2023-03-16T07:44:36;99556.58;;;6.02;57.59
78857;BME280;68207;50.078;19.936;2023-03-16T07:47:01;99553.43;;;6.04;56.84
78857;BME280;68207;50.078;19.936;2023-03-16T07:49:27;99556.88;;;6.15;57.53
78857;BME280;68207;50.078;19.936;2023-03-16T07:51:52;99559.21;;;6.35;57.16
78857;BME280;68207;50.078;19.936;2023-03-16T07:54:18;99558.89;;;6.42;55.93
78857;BME280;68207;50.078;19.936;2023-03-16T07:56:43;99557.66;;;6.36;55.70
78857;BME280;68207;50.078;19.936;2023-03-16T07:59:08;99560.11;;;6.44;55.74
78857;BME280;68207;50.078;19.936;2023-03-16T08:01:34;99554.90;;;6.48;55.67
78857;BME280;68207;50.078;19.936;2023-03-16T08:04:00;99554.30;;;6.67;55.35
78857;BME280;68207;50.078;19.936;2023-03-16T08:06:26;99550.23;;;6.97;55.56
78857;BME280;68207;50.078;19.936;2023-03-16T08:08:52;99549.95;;;7.38;54.99
78857;BME280;68207;50.078;19.936;2023-03-16T08:11:17;99550.48;;;7.59;53.32
78857;BME280;68207;50.078;19.936;2023-03-16T08:13:48;99549.20;;;7.71;53.57
78857;BME280;68207;50.078;19.936;2023-03-16T08:16:19;99548.98;;;7.97;52.97
78857;BME280;68207;50.078;19.936;2023-03-16T08:18:44;99551.27;;;8.13;51.94
78857;BME280;68207;50.078;19.936;2023-03-16T08:21:09;99554.60;;;8.21;51.89
78857;BME280;68207;50.078;19.936;2023-03-16T08:23:35;99559.79;;;8.37;51.79
78857;BME280;68207;50.078;19.936;2023-03-16T08:26:00;99558.88;;;8.60;51.63
78857;BME280;68207;50.078;19.936;2023-03-16T08:28:25;99561.37;;;8.94;51.42
78857;BME280;68207;50.078;19.936;2023-03-16T08:30:52;99558.38;;;9.23;50.82
78857;BME280;68207;50.078;19.936;2023-03-16T08:33:20;99562.61;;;9.45;48.56
78857;BME280;68207;50.078;19.936;2023-03-16T08:35:46;99561.48;;;9.32;48.53
78857;BME280;68207;50.078;19.936;2023-03-16T08:38:12;99559.94;;;9.49;48.81
78857;BME280;68207;50.078;19.936;2023-03-16T08:40:41;99564.02;;;9.72;48.13
78857;BME280;68207;50.078;19.936;2023-03-16T08:43:16;99564.44;;;9.92;47.77
78857;BME280;68207;50.078;19.936;2023-03-16T08:45:45;99565.83;;;9.96;45.87
78857;BME280;68207;50.078;19.936;2023-03-16T08:48:10;99562.63;;;9.82;46.34
78857;BME280;68207;50.078;19.936;2023-03-16T08:50:42;99564.05;;;9.78;47.01
78857;BME280;68207;50.078;19.936;2023-03-16T08:53:08;99563.38;;;9.80;46.87
78857;BME280;68207;50.078;19.936;2023-03-16T08:55:34;99562.08;;;9.82;46.57
78857;BME280;68207;50.078;19.936;2023-03-16T08:58:01;99565.05;;;9.72;46.12
78857;BME280;68207;50.078;19.936;2023-03-16T09:00:26;99561.07;;;9.57;45.79
78857;BME280;68207;50.078;19.936;2023-03-16T09:02:53;99558.52;;;9.44;46.31
78857;BME280;68207;50.078;19.936;2023-03-16T09:05:19;99560.56;;;9.43;45.32
78857;BME280;68207;50.078;19.936;2023-03-16T09:07:45;99561.38;;;9.57;45.48
78857;BME280;68207;50.078;19.936;2023-03-16T09:10:12;99558.89;;;9.79;45.70
78857;BME280;68207;50.078;19.936;2023-03-16T09:12:43;99566.48;;;10.03;45.35
78857;BME280;68207;50.078;19.936;2023-03-16T09:15:10;99558.98;;;9.95;44.45
78857;BME280;68207;50.078;19.936;2023-03-16T09:17:37;99566.88;;;9.87;44.58
78857;BME280;68207;50.078;19.936;2023-03-16T09:20:04;99566.09;;;9.65;45.06
78857;BME280;68207;50.078;19.936;2023-03-16T09:22:29;99566.46;;;9.70;45.50
78857;BME280;68207;50.078;19.936;2023-03-16T09:24:55;99563.89;;;9.94;45.78
78857;BME280;68207;50.078;19.936;2023-03-16T09:27:20;99570.69;;;10.25;46.05
78857;BME280;68207;50.078;19.936;2023-03-16T09:29:46;99569.51;;;10.59;44.85
78857;BME280;68207;50.078;19.936;2023-03-16T09:32:13;99566.98;;;10.90;42.69
78857;BME280;68207;50.078;19.936;2023-03-16T09:34:38;99564.48;;;11.09;40.96
78857;BME280;68207;50.078;19.936;2023-03-16T09:37:04;99570.89;;;11.20;41.24
78857;BME280;68207;50.078;19.936;2023-03-16T09:39:29;99567.20;;;11.33;40.03
78857;BME280;68207;50.078;19.936;2023-03-16T09:42:35;99569.55;;;11.29;40.10
78857;BME280;68207;50.078;19.936;2023-03-16T09:45:17;99566.66;;;11.30;41.54
78857;BME280;68207;50.078;19.936;2023-03-16T09:47:49;99563.73;;;11.34;41.88
78857;BME280;68207;50.078;19.936;2023-03-16T09:50:23;99572.59;;;11.40;41.91
78857;BME280;68207;50.078;19.936;2023-03-16T09:53:15;99564.39;;;11.43;41.70
78857;BME280;68207;50.078;19.936;2023-03-16T09:55:45;99571.08;;;11.55;41.42
78857;BME280;68207;50.078;19.936;2023-03-16T09:58:16;99573.70;;;11.60;39.82
78857;BME280;68207;50.078;19.936;2023-03-16T10:00:58;99571.86;;;11.64;39.69
78857;BME280;68207;50.078;19.936;2023-03-16T10:06:03;99570.77;;;11.53;38.87
78857;BME280;68207;50.078;19.936;2023-03-16T10:08:42;99580.30;;;11.39;38.58
78857;BME280;68207;50.078;19.936;2023-03-16T10:14:08;99586.77;;;11.02;38.48
78857;BME280;68207;50.078;19.936;2023-03-16T10:22:41;99584.96;;;11.16;38.33
78857;BME280;68207;50.078;19.936;2023-03-16T10:25:22;99584.28;;;11.22;38.12
78857;BME280;68207;50.078;19.936;2023-03-16T10:27:50;99585.78;;;11.24;37.84
78857;BME280;68207;50.078;19.936;2023-03-16T10:30:35;99590.64;;;11.09;37.29
78857;BME280;68207;50.078;19.936;2023-03-16T10:33:16;99590.09;;;10.90;37.43
78857;BME280;68207;50.078;19.936;2023-03-16T10:35:47;99595.64;;;10.79;37.74
78857;BME280;68207;50.078;19.936;2023-03-16T10:43:52;99599.32;;;10.52;38.09
78857;BME280;68207;50.078;19.936;2023-03-16T10:46:19;99597.45;;;10.39;37.50
78857;BME280;68207;50.078;19.936;2023-03-16T10:48:53;99596.00;;;10.19;37.74
78857;BME280;68207;50.078;19.936;2023-03-16T10:51:23;99596.48;;;10.07;37.64
78857;BME280;68207;50.078;19.936;2023-03-16T10:53:50;99594.86;;;10.15;37.68
78857;BME280;68207;50.078;19.936;2023-03-16T10:56:24;99596.23;;;10.34;37.46
78857;BME280;68207;50.078;19.936;2023-03-16T10:58:50;99592.27;;;10.54;37.29
78857;BME280;68207;50.078;19.936;2023-03-16T11:01:25;99592.80;;;10.91;37.23
78857;BME280;68207;50.078;19.936;2023-03-16T11:03:52;99589.81;;;11.31;36.88
78857;BME280;68207;50.078;19.936;2023-03-16T11:06:26;99581.02;;;11.66;36.63
78857;BME280;68207;50.078;19.936;2023-03-16T11:09:03;99582.15;;;11.93;36.02
78857;BME280;68207;50.078;19.936;2023-03-16T11:11:31;99587.14;;;12.05;35.35
78857;BME280;68207;50.078;19.936;2023-03-16T11:14:00;99588.77;;;12.16;35.41
78857;BME280;68207;50.078;19.936;2023-03-16T11:16:40;99580.88;;;12.36;35.17
78857;BME280;68207;50.078;19.936;2023-03-16T11:21:51;99588.15;;;12.37;33.92
78857;BME280;68207;50.078;19.936;2023-03-16T11:24:28;99588.67;;;12.32;33.84
78857;BME280;68207;50.078;19.936;2023-03-16T11:26:57;99584.67;;;12.36;33.72
78857;BME280;68207;50.078;19.936;2023-03-16T11:32:09;99586.44;;;12.48;33.90
78857;BME280;68207;50.078;19.936;2023-03-16T11:34:37;99588.27;;;12.65;33.81
78857;BME280;68207;50.078;19.936;2023-03-16T11:42:47;99582.19;;;13.25;32.02
78857;BME280;68207;50.078;19.936;2023-03-16T11:45:29;99581.98;;;13.36;31.78
78857;BME280;68207;50.078;19.936;2023-03-16T11:53:36;99575.50;;;13.45;33.17
78857;BME280;68207;50.078;19.936;2023-03-16T11:59:07;99581.03;;;13.99;33.12
78857;BME280;68207;50.078;19.936;2023-03-16T12:02:12;99580.71;;;14.26;33.25
78857;BME280;68207;50.078;19.936;2023-03-16T12:05:31;99584.44;;;14.61;31.50
78857;BME280;68207;50.078;19.936;2023-03-16T12:08:38;99584.80;;;14.61;31.24
78857;BME280;68207;50.078;19.936;2023-03-16T12:11:11;99578.61;;;14.44;31.27
78857;BME280;68207;50.078;19.936;2023-03-16T12:16:22;99581.23;;;14.62;31.07
78857;BME280;68207;50.078;19.936;2023-03-16T12:18:54;99585.29;;;14.71;31.76
78857;BME280;68207;50.078;19.936;2023-03-16T12:21:32;99592.11;;;14.83;30.79
78857;BME280;68207;50.078;19.936;2023-03-16T12:24:05;99587.02;;;14.60;30.98
78857;BME280;68207;50.078;19.936;2023-03-16T12:26:39;99586.70;;;14.40;30.83
78857;BME280;68207;50.078;19.936;2023-03-16T12:29:27;99579.00;;;14.03;30.67
78857;BME280;68207;50.078;19.936;2023-03-16T12:31:59;99581.17;;;13.94;31.33
78857;BME280;68207;50.078;19.936;2023-03-16T12:34:39;99578.18;;;14.10;31.58
78857;BME280;68207;50.078;19.936;2023-03-16T12:40:04;99578.77;;;14.91;30.89
78857;BME280;68207;50.078;19.936;2023-03-16T12:45:44;99573.25;;;15.38;29.67
78857;BME280;68207;50.078;19.936;2023-03-16T12:48:20;99570.59;;;15.51;29.17
78857;BME280;68207;50.078;19.936;2023-03-16T12:50:51;99567.23;;;15.62;29.05
78857;BME280;68207;50.078;19.936;2023-03-16T12:56:16;99568.19;;;15.72;28.37
78857;BME280;68207;50.078;19.936;2023-03-16T12:58:45;99570.37;;;15.71;28.25
78857;BME280;68207;50.078;19.936;2023-03-16T13:01:12;99566.80;;;15.59;28.23
78857;BME280;68207;50.078;19.936;2023-03-16T13:03:40;99577.09;;;15.52;28.82
78857;BME280;68207;50.078;19.936;2023-03-16T13:06:06;99572.58;;;15.59;29.10
78857;BME280;68207;50.078;19.936;2023-03-16T13:08:42;99571.83;;;15.62;28.91
78857;BME280;68207;50.078;19.936;2023-03-16T13:11:10;99577.05;;;15.54;29.25
78857;BME280;68207;50.078;19.936;2023-03-16T13:14:13;99579.70;;;15.51;28.93
78857;BME280;68207;50.078;19.936;2023-03-16T13:16:41;99579.36;;;15.48;29.12
78857;BME280;68207;50.078;19.936;2023-03-16T13:19:28;99578.91;;;15.50;29.29
78857;BME280;68207;50.078;19.936;2023-03-16T13:22:18;99576.08;;;15.75;29.29
78857;BME280;68207;50.078;19.936;2023-03-16T13:24:59;99577.27;;;16.13;28.75
78857;BME280;68207;50.078;19.936;2023-03-16T13:27:37;99577.34;;;16.22;27.92
78857;BME280;68207;50.078;19.936;2023-03-16T13:30:26;99569.20;;;16.33;27.79
78857;BME280;68207;50.078;19.936;2023-03-16T13:33:15;99571.07;;;16.52;27.29
78857;BME280;68207;50.078;19.936;2023-03-16T13:35:43;99572.11;;;16.80;27.70
78857;BME280;68207;50.078;19.936;2023-03-16T13:38:14;99571.19;;;17.14;26.97
78857;BME280;68207;50.078;19.936;2023-03-16T13:40:48;99565.51;;;17.26;25.52
78857;BME280;68207;50.078;19.936;2023-03-16T13:43:15;99563.79;;;17.02;25.81
78857;BME280;68207;50.078;19.936;2023-03-16T13:45:41;99564.72;;;16.78;25.83
78857;BME280;68207;50.078;19.936;2023-03-16T13:48:11;99566.08;;;16.64;25.84
78857;BME280;68207;50.078;19.936;2023-03-16T13:50:37;99563.70;;;16.28;26.01
78857;BME280;68207;50.078;19.936;2023-03-16T13:53:13;99571.38;;;16.17;26.61
78857;BME280;68207;50.078;19.936;2023-03-16T13:55:39;99571.27;;;16.18;26.84
78857;BME280;68207;50.078;19.936;2023-03-16T14:00:43;99568.73;;;15.76;27.28
78857;BME280;68207;50.078;19.936;2023-03-16T14:03:15;99568.63;;;15.62;27.47
78857;BME280;68207;50.078;19.936;2023-03-16T14:05:42;99573.63;;;15.52;27.69